Airfield :
LOGIN :

Register | Disclaimer

   EN    FR    IT 

 










Legend :    VFR   Marginal VFR   IFR   Intensive IFR   Very Intensive IFR
Visi :
Ceiling :
>= 8 km
>= 3000ft
5 to 8 km
1000 to 3000 ft
1500m to 5 km
500 to 1000 ft
800 to 1500m
200 to 500 ft
< 800m
< 200 ft
Symbols :   Thunderstorms  Fog  Heavy snow  Heavy precipitations  Wind > 20 kt
SIGMETs :     Misc.  Thunderstorms  Icing  Turbulence  Mountain Waves  Volcanic Ashes






- Airport Elevation : 79 ft
- IATA code : SPU


LDSP - Split

CURRENT METAR :
  • 171900Z 24004KT 160V270 CAVOK 10/05 Q1024 BECMG 33010KT

EXPIRED METARs :
  • 171830Z VRB03KT CAVOK 10/05 Q1023 BECMG 33010KT
  • 171800Z 19005KT 150V290 CAVOK 10/05 Q1023 BECMG 33010KT
  • 171730Z 24007G17KT 140V310 CAVOK 10/05 Q1023 BECMG 33010KT
  • 171700Z VRB05KT CAVOK 11/06 Q1022 BECMG 33008KT
  • 171630Z 22008KT 200V270 CAVOK 11/06 Q1022 BECMG 33008KT

TAF AMD TAF LDSP
Valid from the 17 at 18:00 until the 18 at 18:00 UTC


171903Z 1718/1818 28006KT CAVOK TX13/1813Z TN05/1806Z
BECMG 1723/1801 05008KT
PROB40
TEMPO 1803/1811 33006KT



MET'MAP, your aeronautical weather chart ! - Copyright ORBIFLY December 2007 - Disclaimer

ORBIFLY MET'MAP TEAM :

Programming & Development : Alexandra Zaïnal
Concept & original design : Baudouin d'Aumeries
Assistance for programming : Marc-Olivier Méhu
Technical & hardware support : Manuel Goepfert

Contact : metmap@orbifly.com




SOURCES & CREDITS :

   NOAA